sensor_id;sensor_type;location;lat;lon;timestamp;pressure;altitude;pressure_sealevel;temperature;humidity
70027;BME280;57506;50.092;15.804;2022-10-13T00:02:24;99863.47;;;3.51;100.00
70027;BME280;57506;50.092;15.804;2022-10-13T00:04:50;99879.81;;;3.67;100.00
70027;BME280;57506;50.092;15.804;2022-10-13T00:07:15;99848.97;;;3.44;100.00
70027;BME280;57506;50.092;15.804;2022-10-13T00:09:41;99876.22;;;3.47;100.00
70027;BME280;57506;50.092;15.804;2022-10-13T00:12:06;99891.69;;;3.33;100.00
70027;BME280;57506;50.092;15.804;2022-10-13T00:14:32;99871.94;;;3.14;100.00
70027;BME280;57506;50.092;15.804;2022-10-13T00:16:57;99877.81;;;3.08;100.00
70027;BME280;57506;50.092;15.804;2022-10-13T00:19:22;99874.94;;;3.00;100.00
70027;BME280;57506;50.092;15.804;2022-10-13T00:21:48;99877.47;;;3.23;100.00
70027;BME280;57506;50.092;15.804;2022-10-13T00:24:13;99856.22;;;3.11;100.00
70027;BME280;57506;50.092;15.804;2022-10-13T00:26:39;99871.69;;;3.17;100.00
70027;BME280;57506;50.092;15.804;2022-10-13T00:29:04;99867.25;;;2.86;100.00
70027;BME280;57506;50.092;15.804;2022-10-13T00:31:30;99873.88;;;2.71;100.00
70027;BME280;57506;50.092;15.804;2022-10-13T00:33:58;99874.34;;;2.65;100.00
70027;BME280;57506;50.092;15.804;2022-10-13T00:36:24;99847.56;;;2.45;100.00
70027;BME280;57506;50.092;15.804;2022-10-13T00:38:51;99872.03;;;2.71;100.00
70027;BME280;57506;50.092;15.804;2022-10-13T00:41:17;99866.41;;;2.86;100.00
70027;BME280;57506;50.092;15.804;2022-10-13T00:46:14;99861.88;;;3.18;100.00
70027;BME280;57506;50.092;15.804;2022-10-13T00:48:41;99858.84;;;3.23;100.00
70027;BME280;57506;50.092;15.804;2022-10-13T00:51:08;99854.53;;;3.10;100.00
70027;BME280;57506;50.092;15.804;2022-10-13T00:53:36;99866.22;;;2.98;100.00
70027;BME280;57506;50.092;15.804;2022-10-13T00:56:04;99844.00;;;2.67;100.00
70027;BME280;57506;50.092;15.804;2022-10-13T00:58:30;99840.91;;;2.51;100.00
70027;BME280;57506;50.092;15.804;2022-10-13T01:00:58;99841.28;;;2.46;100.00
70027;BME280;57506;50.092;15.804;2022-10-13T01:03:24;99845.16;;;2.54;100.00
70027;BME280;57506;50.092;15.804;2022-10-13T01:05:52;99841.94;;;2.71;100.00
70027;BME280;57506;50.092;15.804;2022-10-13T01:08:20;99847.97;;;2.73;100.00
70027;BME280;57506;50.092;15.804;2022-10-13T01:16:29;99852.22;;;2.32;100.00
70027;BME280;57506;50.092;15.804;2022-10-13T01:25:02;99826.44;;;2.01;100.00
70027;BME280;57506;50.092;15.804;2022-10-13T01:30:34;99823.69;;;1.91;100.00
70027;BME280;57506;50.092;15.804;2022-10-13T01:43:13;99824.59;;;2.13;100.00
70027;BME280;57506;50.092;15.804;2022-10-13T01:48:35;99815.19;;;2.72;100.00
70027;BME280;57506;50.092;15.804;2022-10-13T01:51:04;99821.66;;;2.59;100.00
70027;BME280;57506;50.092;15.804;2022-10-13T01:53:32;99819.22;;;2.35;100.00
70027;BME280;57506;50.092;15.804;2022-10-13T01:55:59;99810.19;;;2.15;100.00
70027;BME280;57506;50.092;15.804;2022-10-13T01:58:28;99818.69;;;2.09;100.00
70027;BME280;57506;50.092;15.804;2022-10-13T02:01:30;99815.91;;;2.10;100.00
70027;BME280;57506;50.092;15.804;2022-10-13T02:11:56;99812.38;;;2.21;100.00
70027;BME280;57506;50.092;15.804;2022-10-13T02:14:26;99814.19;;;2.21;100.00
70027;BME280;57506;50.092;15.804;2022-10-13T02:16:55;99794.38;;;2.14;100.00
70027;BME280;57506;50.092;15.804;2022-10-13T02:19:23;99802.63;;;1.99;100.00
70027;BME280;57506;50.092;15.804;2022-10-13T02:21:50;99810.00;;;1.96;100.00
70027;BME280;57506;50.092;15.804;2022-10-13T02:24:16;99811.25;;;1.81;100.00
70027;BME280;57506;50.092;15.804;2022-10-13T02:26:42;99804.78;;;1.62;100.00
70027;BME280;57506;50.092;15.804;2022-10-13T02:29:09;99806.69;;;1.60;100.00
70027;BME280;57506;50.092;15.804;2022-10-13T02:31:36;99799.56;;;1.72;100.00
70027;BME280;57506;50.092;15.804;2022-10-13T02:34:02;99802.88;;;2.07;100.00
70027;BME280;57506;50.092;15.804;2022-10-13T02:36:27;99812.44;;;2.42;100.00
70027;BME280;57506;50.092;15.804;2022-10-13T02:38:53;99811.16;;;2.25;100.00
70027;BME280;57506;50.092;15.804;2022-10-13T02:41:18;99805.94;;;1.92;100.00
70027;BME280;57506;50.092;15.804;2022-10-13T02:43:44;99807.66;;;1.70;100.00
70027;BME280;57506;50.092;15.804;2022-10-13T02:46:09;99803.53;;;1.66;100.00
70027;BME280;57506;50.092;15.804;2022-10-13T02:48:35;99807.63;;;1.82;100.00
70027;BME280;57506;50.092;15.804;2022-10-13T02:51:00;99799.84;;;2.01;100.00
70027;BME280;57506;50.092;15.804;2022-10-13T02:53:26;99772.13;;;2.15;100.00
70027;BME280;57506;50.092;15.804;2022-10-13T02:55:51;99805.72;;;2.47;100.00
70027;BME280;57506;50.092;15.804;2022-10-13T02:58:17;99806.25;;;2.09;100.00
70027;BME280;57506;50.092;15.804;2022-10-13T03:00:42;99811.50;;;1.89;100.00
70027;BME280;57506;50.092;15.804;2022-10-13T03:03:10;99803.94;;;1.62;100.00
70027;BME280;57506;50.092;15.804;2022-10-13T03:05:35;99821.19;;;1.56;100.00
70027;BME280;57506;50.092;15.804;2022-10-13T03:08:01;99810.31;;;1.48;100.00
70027;BME280;57506;50.092;15.804;2022-10-13T03:10:26;99814.91;;;1.46;100.00
70027;BME280;57506;50.092;15.804;2022-10-13T03:12:53;99813.94;;;1.47;100.00
70027;BME280;57506;50.092;15.804;2022-10-13T03:15:19;99815.03;;;1.45;100.00
70027;BME280;57506;50.092;15.804;2022-10-13T03:17:44;99810.69;;;1.44;100.00
70027;BME280;57506;50.092;15.804;2022-10-13T03:20:10;99809.47;;;1.48;100.00
70027;BME280;57506;50.092;15.804;2022-10-13T03:22:35;99813.34;;;1.55;100.00
70027;BME280;57506;50.092;15.804;2022-10-13T03:25:01;99812.00;;;1.60;100.00
70027;BME280;57506;50.092;15.804;2022-10-13T03:27:27;99799.44;;;1.73;100.00
70027;BME280;57506;50.092;15.804;2022-10-13T03:29:53;99799.88;;;1.90;100.00
70027;BME280;57506;50.092;15.804;2022-10-13T03:32:19;99798.81;;;1.92;100.00
70027;BME280;57506;50.092;15.804;2022-10-13T03:34:44;99807.81;;;2.01;100.00
70027;BME280;57506;50.092;15.804;2022-10-13T03:37:09;99794.53;;;2.01;100.00
70027;BME280;57506;50.092;15.804;2022-10-13T03:39:35;99805.78;;;2.04;100.00
70027;BME280;57506;50.092;15.804;2022-10-13T03:42:01;99812.63;;;2.18;100.00
70027;BME280;57506;50.092;15.804;2022-10-13T03:44:26;99801.31;;;2.05;100.00
70027;BME280;57506;50.092;15.804;2022-10-13T03:46:52;99796.00;;;2.05;100.00
70027;BME280;57506;50.092;15.804;2022-10-13T03:49:17;99800.22;;;2.07;100.00
70027;BME280;57506;50.092;15.804;2022-10-13T03:51:43;99794.28;;;2.04;100.00
70027;BME280;57506;50.092;15.804;2022-10-13T03:54:11;99794.78;;;1.98;100.00
70027;BME280;57506;50.092;15.804;2022-10-13T03:56:37;99809.16;;;1.95;100.00
70027;BME280;57506;50.092;15.804;2022-10-13T03:59:03;99801.38;;;1.71;100.00
70027;BME280;57506;50.092;15.804;2022-10-13T04:01:29;99810.06;;;1.51;100.00
70027;BME280;57506;50.092;15.804;2022-10-13T04:03:57;99810.56;;;1.34;100.00
70027;BME280;57506;50.092;15.804;2022-10-13T04:06:23;99807.91;;;1.23;100.00
70027;BME280;57506;50.092;15.804;2022-10-13T04:08:49;99827.22;;;1.25;100.00
70027;BME280;57506;50.092;15.804;2022-10-13T04:11:15;99820.78;;;1.16;100.00
70027;BME280;57506;50.092;15.804;2022-10-13T04:13:42;99820.06;;;1.14;100.00
70027;BME280;57506;50.092;15.804;2022-10-13T04:16:12;99819.94;;;1.16;100.00
70027;BME280;57506;50.092;15.804;2022-10-13T04:18:38;99811.13;;;1.04;100.00
70027;BME280;57506;50.092;15.804;2022-10-13T04:21:12;99816.81;;;1.22;100.00
70027;BME280;57506;50.092;15.804;2022-10-13T04:23:38;99823.09;;;1.32;100.00
70027;BME280;57506;50.092;15.804;2022-10-13T04:26:04;99820.47;;;1.43;100.00
70027;BME280;57506;50.092;15.804;2022-10-13T04:28:30;99804.16;;;1.25;100.00
70027;BME280;57506;50.092;15.804;2022-10-13T04:31:00;99808.88;;;1.22;100.00
70027;BME280;57506;50.092;15.804;2022-10-13T04:33:26;99812.81;;;1.16;100.00
70027;BME280;57506;50.092;15.804;2022-10-13T04:35:52;99808.63;;;1.14;100.00
70027;BME280;57506;50.092;15.804;2022-10-13T04:38:17;99805.94;;;1.02;100.00
70027;BME280;57506;50.092;15.804;2022-10-13T04:40:43;99820.06;;;1.14;100.00
70027;BME280;57506;50.092;15.804;2022-10-13T04:43:08;99818.13;;;1.05;100.00
70027;BME280;57506;50.092;15.804;2022-10-13T04:45:34;99823.31;;;1.07;100.00
70027;BME280;57506;50.092;15.804;2022-10-13T04:48:00;99812.31;;;1.00;100.00
70027;BME280;57506;50.092;15.804;2022-10-13T04:50:26;99815.25;;;1.08;100.00
70027;BME280;57506;50.092;15.804;2022-10-13T04:52:51;99820.44;;;1.10;100.00
70027;BME280;57506;50.092;15.804;2022-10-13T04:55:17;99806.44;;;1.08;100.00
70027;BME280;57506;50.092;15.804;2022-10-13T04:57:42;99800.41;;;0.94;100.00
70027;BME280;57506;50.092;15.804;2022-10-13T05:00:08;99807.75;;;0.91;100.00
70027;BME280;57506;50.092;15.804;2022-10-13T05:02:34;99788.03;;;0.82;100.00
70027;BME280;57506;50.092;15.804;2022-10-13T05:05:00;99800.63;;;1.02;100.00
70027;BME280;57506;50.092;15.804;2022-10-13T05:07:26;99803.63;;;0.98;100.00
70027;BME280;57506;50.092;15.804;2022-10-13T05:09:51;99798.94;;;1.01;100.00
70027;BME280;57506;50.092;15.804;2022-10-13T05:12:17;99803.91;;;1.06;100.00
70027;BME280;57506;50.092;15.804;2022-10-13T05:14:42;99821.03;;;1.02;100.00
70027;BME280;57506;50.092;15.804;2022-10-13T05:17:08;99758.44;;;0.53;100.00
70027;BME280;57506;50.092;15.804;2022-10-13T05:19:33;99815.19;;;0.86;100.00
70027;BME280;57506;50.092;15.804;2022-10-13T05:21:59;99799.91;;;0.89;100.00
70027;BME280;57506;50.092;15.804;2022-10-13T05:24:24;99801.59;;;1.01;100.00
70027;BME280;57506;50.092;15.804;2022-10-13T05:27:03;99792.06;;;0.99;100.00
70027;BME280;57506;50.092;15.804;2022-10-13T05:29:28;99791.72;;;1.15;100.00
70027;BME280;57506;50.092;15.804;2022-10-13T05:31:54;99784.97;;;1.22;100.00
70027;BME280;57506;50.092;15.804;2022-10-13T05:34:19;99770.34;;;1.16;100.00
70027;BME280;57506;50.092;15.804;2022-10-13T05:36:45;99774.59;;;1.19;100.00
70027;BME280;57506;50.092;15.804;2022-10-13T05:39:10;99784.84;;;1.34;100.00
70027;BME280;57506;50.092;15.804;2022-10-13T05:41:36;99781.00;;;1.38;100.00
70027;BME280;57506;50.092;15.804;2022-10-13T05:44:06;99787.38;;;1.47;100.00
70027;BME280;57506;50.092;15.804;2022-10-13T05:46:32;99774.34;;;1.55;100.00
70027;BME280;57506;50.092;15.804;2022-10-13T05:48:58;99771.19;;;1.61;100.00
70027;BME280;57506;50.092;15.804;2022-10-13T05:51:26;99785.63;;;1.80;100.00
70027;BME280;57506;50.092;15.804;2022-10-13T05:54:07;99775.25;;;1.88;100.00
70027;BME280;57506;50.092;15.804;2022-10-13T05:56:40;99772.31;;;2.02;100.00
70027;BME280;57506;50.092;15.804;2022-10-13T05:59:09;99757.25;;;2.23;100.00
70027;BME280;57506;50.092;15.804;2022-10-13T06:01:39;99764.13;;;2.46;100.00
70027;BME280;57506;50.092;15.804;2022-10-13T06:04:12;99767.50;;;2.60;100.00
70027;BME280;57506;50.092;15.804;2022-10-13T06:06:39;99764.22;;;2.56;100.00
70027;BME280;57506;50.092;15.804;2022-10-13T06:09:05;99764.81;;;2.60;100.00
70027;BME280;57506;50.092;15.804;2022-10-13T06:11:30;99777.81;;;2.74;100.00
70027;BME280;57506;50.092;15.804;2022-10-13T06:13:56;99781.94;;;2.88;100.00
70027;BME280;57506;50.092;15.804;2022-10-13T06:16:21;99776.25;;;2.92;100.00
70027;BME280;57506;50.092;15.804;2022-10-13T06:18:47;99766.81;;;2.88;100.00
70027;BME280;57506;50.092;15.804;2022-10-13T06:21:12;99785.13;;;3.02;100.00
70027;BME280;57506;50.092;15.804;2022-10-13T06:23:38;99782.25;;;3.15;100.00
70027;BME280;57506;50.092;15.804;2022-10-13T06:26:05;99788.63;;;3.33;100.00
70027;BME280;57506;50.092;15.804;2022-10-13T06:28:31;99785.03;;;3.44;100.00
70027;BME280;57506;50.092;15.804;2022-10-13T06:30:56;99779.03;;;3.51;100.00
70027;BME280;57506;50.092;15.804;2022-10-13T06:33:23;99778.53;;;3.67;100.00
70027;BME280;57506;50.092;15.804;2022-10-13T06:35:52;99781.78;;;3.80;100.00
70027;BME280;57506;50.092;15.804;2022-10-13T06:38:18;99781.66;;;3.92;100.00
70027;BME280;57506;50.092;15.804;2022-10-13T06:40:44;99760.50;;;4.00;100.00
70027;BME280;57506;50.092;15.804;2022-10-13T06:43:09;99756.72;;;4.02;100.00
70027;BME280;57506;50.092;15.804;2022-10-13T06:45:34;99759.25;;;4.13;100.00
70027;BME280;57506;50.092;15.804;2022-10-13T06:48:00;99756.44;;;4.25;100.00
70027;BME280;57506;50.092;15.804;2022-10-13T06:50:26;99758.16;;;4.35;100.00
70027;BME280;57506;50.092;15.804;2022-10-13T06:52:51;99747.19;;;4.48;100.00
70027;BME280;57506;50.092;15.804;2022-10-13T06:55:16;99758.00;;;4.66;100.00
70027;BME280;57506;50.092;15.804;2022-10-13T06:57:42;99765.97;;;4.85;100.00
70027;BME280;57506;50.092;15.804;2022-10-13T07:00:08;99758.06;;;4.93;100.00
70027;BME280;57506;50.092;15.804;2022-10-13T07:02:34;99759.38;;;5.36;100.00
70027;BME280;57506;50.092;15.804;2022-10-13T07:05:00;99739.91;;;5.43;100.00
70027;BME280;57506;50.092;15.804;2022-10-13T07:07:25;99763.44;;;5.67;100.00
70027;BME280;57506;50.092;15.804;2022-10-13T07:09:51;99752.81;;;5.75;100.00
70027;BME280;57506;50.092;15.804;2022-10-13T07:12:16;99763.91;;;5.90;100.00
70027;BME280;57506;50.092;15.804;2022-10-13T07:14:42;99775.53;;;5.99;100.00
70027;BME280;57506;50.092;15.804;2022-10-13T07:17:07;99772.88;;;5.99;100.00
70027;BME280;57506;50.092;15.804;2022-10-13T07:19:33;99775.63;;;6.07;100.00
70027;BME280;57506;50.092;15.804;2022-10-13T07:21:58;99779.53;;;6.12;100.00
70027;BME280;57506;50.092;15.804;2022-10-13T07:24:24;99764.69;;;6.18;100.00
70027;BME280;57506;50.092;15.804;2022-10-13T07:26:50;99773.06;;;6.32;100.00
70027;BME280;57506;50.092;15.804;2022-10-13T07:29:16;99784.13;;;6.38;100.00
70027;BME280;57506;50.092;15.804;2022-10-13T07:31:42;99771.13;;;6.43;100.00
70027;BME280;57506;50.092;15.804;2022-10-13T07:34:08;99778.34;;;6.86;100.00
70027;BME280;57506;50.092;15.804;2022-10-13T07:36:34;99763.88;;;6.96;100.00
70027;BME280;57506;50.092;15.804;2022-10-13T07:39:00;99784.53;;;7.30;100.00
70027;BME280;57506;50.092;15.804;2022-10-13T07:41:27;99775.47;;;7.31;100.00
70027;BME280;57506;50.092;15.804;2022-10-13T07:43:56;99773.16;;;7.36;100.00
70027;BME280;57506;50.092;15.804;2022-10-13T07:46:22;99774.41;;;7.50;100.00
70027;BME280;57506;50.092;15.804;2022-10-13T07:48:47;99763.88;;;7.56;100.00
70027;BME280;57506;50.092;15.804;2022-10-13T07:51:13;99763.53;;;7.93;100.00
70027;BME280;57506;50.092;15.804;2022-10-13T07:53:41;99757.50;;;7.91;100.00
70027;BME280;57506;50.092;15.804;2022-10-13T07:56:09;99762.22;;;8.14;100.00
70027;BME280;57506;50.092;15.804;2022-10-13T07:58:37;99769.59;;;8.03;100.00
70027;BME280;57506;50.092;15.804;2022-10-13T08:01:03;99757.84;;;8.13;100.00
70027;BME280;57506;50.092;15.804;2022-10-13T08:03:29;99752.00;;;8.17;100.00
70027;BME280;57506;50.092;15.804;2022-10-13T08:05:57;99762.00;;;8.49;100.00
70027;BME280;57506;50.092;15.804;2022-10-13T08:08:23;99762.66;;;8.51;100.00
70027;BME280;57506;50.092;15.804;2022-10-13T08:10:49;99749.72;;;8.63;100.00
70027;BME280;57506;50.092;15.804;2022-10-13T08:13:15;99749.91;;;8.69;100.00
70027;BME280;57506;50.092;15.804;2022-10-13T08:15:41;99748.56;;;8.90;100.00
70027;BME280;57506;50.092;15.804;2022-10-13T08:18:09;99756.94;;;9.03;100.00
70027;BME280;57506;50.092;15.804;2022-10-13T08:20:38;99749.53;;;9.13;100.00
70027;BME280;57506;50.092;15.804;2022-10-13T08:23:04;99750.81;;;9.41;100.00
70027;BME280;57506;50.092;15.804;2022-10-13T08:25:29;99730.94;;;9.51;100.00
70027;BME280;57506;50.092;15.804;2022-10-13T08:27:55;99742.53;;;9.51;100.00
70027;BME280;57506;50.092;15.804;2022-10-13T08:30:20;99745.44;;;9.80;100.00
70027;BME280;57506;50.092;15.804;2022-10-13T08:32:46;99747.63;;;9.77;100.00
70027;BME280;57506;50.092;15.804;2022-10-13T08:35:12;99751.16;;;9.86;100.00
70027;BME280;57506;50.092;15.804;2022-10-13T08:37:37;99743.66;;;10.04;100.00
70027;BME280;57506;50.092;15.804;2022-10-13T08:40:03;99742.41;;;10.14;100.00
70027;BME280;57506;50.092;15.804;2022-10-13T08:42:28;99741.72;;;10.21;100.00
70027;BME280;57506;50.092;15.804;2022-10-13T08:44:57;99740.22;;;10.10;100.00
70027;BME280;57506;50.092;15.804;2022-10-13T08:49:54;99744.78;;;10.09;100.00
70027;BME280;57506;50.092;15.804;2022-10-13T08:52:24;99745.75;;;10.16;100.00
70027;BME280;57506;50.092;15.804;2022-10-13T08:54:51;99736.34;;;10.21;100.00
70027;BME280;57506;50.092;15.804;2022-10-13T08:57:17;99738.44;;;10.33;100.00
70027;BME280;57506;50.092;15.804;2022-10-13T08:59:43;99742.22;;;10.47;100.00
70027;BME280;57506;50.092;15.804;2022-10-13T09:02:15;99745.63;;;10.64;100.00
70027;BME280;57506;50.092;15.804;2022-10-13T09:04:48;99746.28;;;10.66;100.00
70027;BME280;57506;50.092;15.804;2022-10-13T09:07:17;99744.75;;;10.71;100.00
70027;BME280;57506;50.092;15.804;2022-10-13T09:09:43;99742.81;;;10.95;100.00
70027;BME280;57506;50.092;15.804;2022-10-13T09:12:11;99744.06;;;11.07;100.00
70027;BME280;57506;50.092;15.804;2022-10-13T09:14:39;99744.84;;;11.30;100.00
70027;BME280;57506;50.092;15.804;2022-10-13T09:19:38;99739.06;;;11.63;95.82
70027;BME280;57506;50.092;15.804;2022-10-13T09:27:54;99738.13;;;12.00;94.01
70027;BME280;57506;50.092;15.804;2022-10-13T09:32:54;99733.56;;;12.21;92.05
70027;BME280;57506;50.092;15.804;2022-10-13T09:35:21;99731.97;;;12.27;90.65
70027;BME280;57506;50.092;15.804;2022-10-13T09:40:32;99726.44;;;12.56;91.15
70027;BME280;57506;50.092;15.804;2022-10-13T09:43:00;99721.50;;;12.60;92.42
70027;BME280;57506;50.092;15.804;2022-10-13T09:45:27;99725.47;;;12.85;92.21
70027;BME280;57506;50.092;15.804;2022-10-13T09:48:03;99719.47;;;12.90;93.23
70027;BME280;57506;50.092;15.804;2022-10-13T09:50:30;99718.59;;;13.11;91.44
70027;BME280;57506;50.092;15.804;2022-10-13T09:58:36;99711.94;;;13.41;88.30
70027;BME280;57506;50.092;15.804;2022-10-13T10:01:09;99698.16;;;13.36;89.55
70027;BME280;57506;50.092;15.804;2022-10-13T10:03:41;99698.03;;;13.44;84.18
70027;BME280;57506;50.092;15.804;2022-10-13T10:06:08;99702.22;;;13.53;84.76
70027;BME280;57506;50.092;15.804;2022-10-13T10:08:43;99697.69;;;13.60;85.51
70027;BME280;57506;50.092;15.804;2022-10-13T10:14:00;99686.06;;;13.73;83.55
70027;BME280;57506;50.092;15.804;2022-10-13T10:16:48;99673.22;;;13.88;83.20
70027;BME280;57506;50.092;15.804;2022-10-13T10:19:21;99683.25;;;13.94;84.30
70027;BME280;57506;50.092;15.804;2022-10-13T10:25:07;99670.53;;;14.01;87.47
70027;BME280;57506;50.092;15.804;2022-10-13T10:27:44;99665.97;;;14.15;82.04
70027;BME280;57506;50.092;15.804;2022-10-13T10:30:17;99655.09;;;13.95;81.19
70027;BME280;57506;50.092;15.804;2022-10-13T10:33:02;99664.94;;;14.10;83.52
70027;BME280;57506;50.092;15.804;2022-10-13T10:35:43;99657.03;;;14.21;83.78
70027;BME280;57506;50.092;15.804;2022-10-13T10:46:00;99635.19;;;14.49;87.79
70027;BME280;57506;50.092;15.804;2022-10-13T10:48:33;99632.69;;;14.48;85.60
70027;BME280;57506;50.092;15.804;2022-10-13T10:51:00;99624.53;;;14.48;86.40
70027;BME280;57506;50.092;15.804;2022-10-13T10:53:51;99627.47;;;14.53;86.40
70027;BME280;57506;50.092;15.804;2022-10-13T10:56:38;99626.66;;;14.59;85.89
70027;BME280;57506;50.092;15.804;2022-10-13T10:59:33;99625.38;;;14.75;86.22
70027;BME280;57506;50.092;15.804;2022-10-13T11:04:47;99604.41;;;15.15;85.46
70027;BME280;57506;50.092;15.804;2022-10-13T11:15:45;99577.41;;;15.39;87.26
70027;BME280;57506;50.092;15.804;2022-10-13T11:34:57;99556.09;;;15.81;81.31
70027;BME280;57506;50.092;15.804;2022-10-13T11:37:29;99549.09;;;15.60;82.34
70027;BME280;57506;50.092;15.804;2022-10-13T11:48:52;99551.59;;;15.93;83.46
70027;BME280;57506;50.092;15.804;2022-10-13T11:59:25;99536.31;;;15.99;78.26
70027;BME280;57506;50.092;15.804;2022-10-13T12:01:58;99536.81;;;15.89;81.52
70027;BME280;57506;50.092;15.804;2022-10-13T12:04:26;99529.66;;;15.95;81.24
70027;BME280;57506;50.092;15.804;2022-10-13T12:07:02;99513.06;;;16.03;81.30
70027;BME280;57506;50.092;15.804;2022-10-13T12:09:29;99522.53;;;15.94;81.02
70027;BME280;57506;50.092;15.804;2022-10-13T12:12:02;99519.78;;;16.00;82.29
70027;BME280;57506;50.092;15.804;2022-10-13T12:14:36;99517.59;;;16.09;79.50
70027;BME280;57506;50.092;15.804;2022-10-13T12:17:03;99518.28;;;16.04;78.47
70027;BME280;57506;50.092;15.804;2022-10-13T12:19:30;99508.97;;;16.19;77.99
70027;BME280;57506;50.092;15.804;2022-10-13T12:21:58;99508.84;;;16.32;78.34
70027;BME280;57506;50.092;15.804;2022-10-13T12:24:29;99507.56;;;16.34;77.33
70027;BME280;57506;50.092;15.804;2022-10-13T12:26:55;99505.78;;;16.47;80.26
70027;BME280;57506;50.092;15.804;2022-10-13T12:29:25;99499.72;;;16.69;81.65
70027;BME280;57506;50.092;15.804;2022-10-13T12:31:51;99506.75;;;16.77;76.55
70027;BME280;57506;50.092;15.804;2022-10-13T12:34:28;99511.59;;;16.93;77.20
70027;BME280;57506;50.092;15.804;2022-10-13T12:37:00;99503.56;;;16.80;77.43
70027;BME280;57506;50.092;15.804;2022-10-13T12:39:27;99498.13;;;16.80;78.32
70027;BME280;57506;50.092;15.804;2022-10-13T12:41:55;99500.69;;;16.75;78.43
70027;BME280;57506;50.092;15.804;2022-10-13T12:44:26;99494.91;;;16.71;77.97
70027;BME280;57506;50.092;15.804;2022-10-13T12:46:54;99495.41;;;16.80;75.45
70027;BME280;57506;50.092;15.804;2022-10-13T12:49:27;99489.13;;;16.79;75.44
70027;BME280;57506;50.092;15.804;2022-10-13T12:54:31;99485.03;;;17.07;77.17
70027;BME280;57506;50.092;15.804;2022-10-13T12:56:59;99480.28;;;17.02;77.95
70027;BME280;57506;50.092;15.804;2022-10-13T12:59:27;99477.53;;;17.21;77.66
70027;BME280;57506;50.092;15.804;2022-10-13T13:01:59;99489.25;;;17.21;76.49
70027;BME280;57506;50.092;15.804;2022-10-13T13:07:03;99476.94;;;17.48;76.50
70027;BME280;57506;50.092;15.804;2022-10-13T13:09:34;99473.19;;;17.61;74.29
70027;BME280;57506;50.092;15.804;2022-10-13T13:14:38;99470.44;;;17.49;74.17
70027;BME280;57506;50.092;15.804;2022-10-13T13:19:47;99457.72;;;17.43;71.57
70027;BME280;57506;50.092;15.804;2022-10-13T13:22:14;99458.28;;;17.64;72.63
70027;BME280;57506;50.092;15.804;2022-10-13T13:24:40;99458.69;;;17.91;71.36
70027;BME280;57506;50.092;15.804;2022-10-13T13:27:31;99460.50;;;17.97;72.76
70027;BME280;57506;50.092;15.804;2022-10-13T13:29:58;99461.78;;;17.94;73.35
70027;BME280;57506;50.092;15.804;2022-10-13T13:32:26;99458.81;;;17.84;73.29
70027;BME280;57506;50.092;15.804;2022-10-13T13:34:52;99445.63;;;17.69;69.90
70027;BME280;57506;50.092;15.804;2022-10-13T13:37:36;99471.84;;;17.82;75.44
70027;BME280;57506;50.092;15.804;2022-10-13T13:40:04;99454.44;;;17.83;69.41
70027;BME280;57506;50.092;15.804;2022-10-13T13:42:30;99461.03;;;17.75;68.70
70027;BME280;57506;50.092;15.804;2022-10-13T13:44:56;99454.28;;;17.66;72.90
70027;BME280;57506;50.092;15.804;2022-10-13T13:47:23;99454.38;;;17.71;70.51
70027;BME280;57506;50.092;15.804;2022-10-13T13:49:50;99459.75;;;17.78;71.02
70027;BME280;57506;50.092;15.804;2022-10-13T13:52:18;99452.63;;;17.89;71.41
70027;BME280;57506;50.092;15.804;2022-10-13T13:54:44;99451.81;;;17.88;70.41
70027;BME280;57506;50.092;15.804;2022-10-13T13:57:11;99447.19;;;17.77;69.33
70027;BME280;57506;50.092;15.804;2022-10-13T13:59:38;99451.66;;;17.71;69.28
70027;BME280;57506;50.092;15.804;2022-10-13T14:02:05;99431.75;;;17.71;72.01
70027;BME280;57506;50.092;15.804;2022-10-13T14:04:32;99444.59;;;17.82;72.70
70027;BME280;57506;50.092;15.804;2022-10-13T14:06:57;99434.16;;;17.79;70.66
70027;BME280;57506;50.092;15.804;2022-10-13T14:09:23;99436.03;;;17.67;72.52
70027;BME280;57506;50.092;15.804;2022-10-13T14:11:49;99442.13;;;17.62;73.47
70027;BME280;57506;50.092;15.804;2022-10-13T14:14:14;99432.88;;;17.52;72.14
70027;BME280;57506;50.092;15.804;2022-10-13T14:16:40;99433.16;;;17.32;75.19
70027;BME280;57506;50.092;15.804;2022-10-13T14:19:06;99423.19;;;17.26;74.53
70027;BME280;57506;50.092;15.804;2022-10-13T14:21:32;99422.69;;;17.17;76.63
70027;BME280;57506;50.092;15.804;2022-10-13T14:23:58;99429.66;;;17.13;78.76
70027;BME280;57506;50.092;15.804;2022-10-13T14:26:24;99425.50;;;17.10;78.99
70027;BME280;57506;50.092;15.804;2022-10-13T14:28:50;99408.69;;;17.13;77.78
70027;BME280;57506;50.092;15.804;2022-10-13T14:31:15;99416.00;;;17.31;77.18
70027;BME280;57506;50.092;15.804;2022-10-13T14:33:42;99414.72;;;17.45;77.26
70027;BME280;57506;50.092;15.804;2022-10-13T14:36:07;99409.53;;;17.56;72.82
70027;BME280;57506;50.092;15.804;2022-10-13T14:38:33;99413.97;;;17.38;73.36
70027;BME280;57506;50.092;15.804;2022-10-13T14:41:00;99411.69;;;17.24;73.33
70027;BME280;57506;50.092;15.804;2022-10-13T14:43:26;99403.25;;;17.13;74.16
70027;BME280;57506;50.092;15.804;2022-10-13T14:45:52;99417.19;;;17.05;75.43
70027;BME280;57506;50.092;15.804;2022-10-13T14:48:17;99406.94;;;16.89;74.99
70027;BME280;57506;50.092;15.804;2022-10-13T14:50:43;99393.13;;;16.54;81.92
70027;BME280;57506;50.092;15.804;2022-10-13T14:53:09;99405.44;;;16.38;81.24
70027;BME280;57506;50.092;15.804;2022-10-13T14:55:35;99403.53;;;16.21;80.81
70027;BME280;57506;50.092;15.804;2022-10-13T14:58:01;99409.00;;;15.96;82.85
70027;BME280;57506;50.092;15.804;2022-10-13T15:00:27;99408.09;;;15.77;83.06
70027;BME280;57506;50.092;15.804;2022-10-13T15:02:53;99405.38;;;15.52;86.42